Terminal Aerodrome Forecast
Issued by NWS Austin/San Antonio, TX

Home | Current Version | Previous Version | Text Only | Print | Product List | Glossary On
Versions: 1 2 3 4 5 6 7 8 9 10 11 12 13 14 15 16 17 18 19 20 21 22 23 24 25 26 27
000
FTUS44 KEWX 261127
TAFSAT
TAF
KSAT 261127Z 2612/2718 15009KT P6SM SCT012 SCT250
     FM261500 17008KT P6SM SCT035 SCT250
     FM262100 14015KT P6SM SCT060 SCT250
     FM270900 18006KT P6SM BKN012
     FM271400 19008KT P6SM SCT030 SCT250=

USA.gov is the U.S. government's official web portal to all federal, state and local government web resources and services.